Time;durP1;ratioP1;P1;durP2;ratioP2;P2;SDS_P1;SDS_P2;PMS_P1;PMS_P2;Temp;Humidity;BMP_temperature;BMP_pressure;BME280_temperature;BME280_humidity;BME280_pressure;Samples;Min_cycle;Max_cycle;Signal;HPM_P1;HPM_P2
2023/01/26 00:00:52;;;;;;;39.53;23.80;;;;;;;;;;5052250;28;21042;-73
2023/01/26 00:03:20;;;;;;;44.27;25.87;;;;;;;;;;5053227;28;20780;-74
2023/01/26 00:05:47;;;;;;;43.07;25.23;;;;;;;;;;5052981;28;20505;-74
2023/01/26 00:08:14;;;;;;;40.13;24.30;;;;;;;;;;5053046;28;20480;-74
2023/01/26 00:10:48;;;;;;;45.33;25.90;;;;;;;;;;5053345;28;20520;-74
2023/01/26 00:13:16;;;;;;;36.70;22.93;;;;;;;;;;5052724;28;20447;-73
2023/01/26 00:15:43;;;;;;;46.63;25.00;;;;;;;;;;5061408;28;20534;-73
2023/01/26 00:18:11;;;;;;;43.33;25.17;;;;;;;;;;5072739;28;20477;-74
2023/01/26 00:20:38;;;;;;;34.83;23.20;;;;;;;;;;5071634;28;20468;-73
2023/01/26 00:23:05;;;;;;;37.07;23.63;;;;;;;;;;5071577;28;20448;-73
2023/01/26 00:25:32;;;;;;;38.60;23.20;;;;;;;;;;5071484;28;20449;-73
2023/01/26 00:27:59;;;;;;;40.60;24.80;;;;;;;;;;5071429;28;20450;-74
2023/01/26 00:30:26;;;;;;;43.20;24.63;;;;;;;;;;5071362;28;20519;-72
2023/01/26 00:32:56;;;;;;;34.67;21.43;;;;;;;;;;5071092;28;20461;-74
2023/01/26 00:35:24;;;;;;;36.73;22.60;;;;;;;;;;5071499;28;20470;-72
2023/01/26 00:37:51;;;;;;;37.07;22.60;;;;;;;;;;5071657;28;20444;-72
2023/01/26 00:40:18;;;;;;;39.97;23.07;;;;;;;;;;5071185;28;20472;-74
2023/01/26 00:42:45;;;;;;;35.90;21.90;;;;;;;;;;5070878;28;20851;-72
2023/01/26 00:45:12;;;;;;;37.33;21.60;;;;;;;;;;5070917;28;20447;-72
2023/01/26 00:47:39;;;;;;;34.00;22.13;;;;;;;;;;5071214;28;20445;-73
2023/01/26 00:50:07;;;;;;;36.53;21.87;;;;;;;;;;5070916;28;20564;-73
2023/01/26 00:52:35;;;;;;;39.00;23.17;;;;;;;;;;5071018;28;20446;-73
2023/01/26 00:55:02;;;;;;;37.60;23.87;;;;;;;;;;5070926;28;20813;-73
2023/01/26 00:57:29;;;;;;;40.03;22.03;;;;;;;;;;5071038;28;20455;-74
2023/01/26 00:59:56;;;;;;;37.20;23.63;;;;;;;;;;5071885;28;20463;-74
2023/01/26 01:02:23;;;;;;;32.33;20.27;;;;;;;;;;5074143;28;20655;-74
2023/01/26 01:04:50;;;;;;;34.27;21.73;;;;;;;;;;5074274;28;20444;-74
2023/01/26 01:07:17;;;;;;;35.90;22.60;;;;;;;;;;5072230;28;20462;-72
2023/01/26 01:09:46;;;;;;;34.10;22.13;;;;;;;;;;5070567;28;20469;-74
2023/01/26 01:12:13;;;;;;;31.30;21.67;;;;;;;;;;5070493;28;20498;-72
2023/01/26 01:14:40;;;;;;;38.90;22.57;;;;;;;;;;5070088;28;20982;-72
2023/01/26 01:17:08;;;;;;;36.73;22.27;;;;;;;;;;5070171;28;20454;-75
2023/01/26 01:19:35;;;;;;;38.33;24.40;;;;;;;;;;5070185;28;20517;-74
2023/01/26 01:22:02;;;;;;;36.57;23.07;;;;;;;;;;5070074;28;20812;-72
2023/01/26 01:24:29;;;;;;;35.33;22.17;;;;;;;;;;5069301;28;20814;-72
2023/01/26 01:26:57;;;;;;;37.03;23.07;;;;;;;;;;5070260;28;20949;-75
2023/01/26 01:29:24;;;;;;;33.83;20.60;;;;;;;;;;5068688;28;20477;-72
2023/01/26 01:31:51;;;;;;;34.40;20.77;;;;;;;;;;5068843;28;20467;-72
2023/01/26 01:34:18;;;;;;;33.30;21.50;;;;;;;;;;5069813;28;20441;-74
2023/01/26 01:36:45;;;;;;;33.07;20.60;;;;;;;;;;5070608;28;20528;-73
2023/01/26 01:39:12;;;;;;;32.30;21.80;;;;;;;;;;5071209;28;20465;-72
2023/01/26 01:41:39;;;;;;;38.50;21.33;;;;;;;;;;5071730;28;20469;-73
2023/01/26 01:44:16;;;;;;;36.70;23.70;;;;;;;;;;5070751;28;20445;-73
2023/01/26 01:46:45;;;;;;;36.03;22.60;;;;;;;;;;5070858;28;20440;-73
2023/01/26 01:49:16;;;;;;;34.20;22.53;;;;;;;;;;5069867;28;20532;-73
2023/01/26 01:51:45;;;;;;;31.33;20.80;;;;;;;;;;5070203;28;20947;-74
2023/01/26 01:54:15;;;;;;;33.27;21.77;;;;;;;;;;5070471;28;20451;-73
2023/01/26 01:56:43;;;;;;;31.10;19.43;;;;;;;;;;5071460;28;20481;-74
2023/01/26 01:59:11;;;;;;;31.33;20.00;;;;;;;;;;5070514;28;20481;-73
2023/01/26 02:01:39;;;;;;;30.80;20.50;;;;;;;;;;5070427;28;20447;-73
2023/01/26 02:04:07;;;;;;;30.50;20.07;;;;;;;;;;5069987;28;20447;-73
2023/01/26 02:06:37;;;;;;;36.77;22.40;;;;;;;;;;5070487;28;20499;-73
2023/01/26 02:09:05;;;;;;;35.10;21.67;;;;;;;;;;5071053;28;20530;-72
2023/01/26 02:11:34;;;;;;;33.67;21.73;;;;;;;;;;5073647;28;20450;-72
2023/01/26 02:14:03;;;;;;;36.80;22.50;;;;;;;;;;5072724;28;20551;-72
2023/01/26 02:16:30;;;;;;;36.27;23.73;;;;;;;;;;5054724;28;20823;-73
2023/01/26 02:18:59;;;;;;;33.17;21.37;;;;;;;;;;5049765;28;20476;-73
2023/01/26 02:21:26;;;;;;;35.93;21.57;;;;;;;;;;5049538;28;20479;-72
2023/01/26 02:24:02;;;;;;;43.97;22.20;;;;;;;;;;5049492;28;20478;-73
2023/01/26 02:26:32;;;;;;;35.60;21.23;;;;;;;;;;5049514;28;20626;-73
2023/01/26 02:29:00;;;;;;;32.80;20.70;;;;;;;;;;5049857;28;20443;-72
2023/01/26 02:31:27;;;;;;;37.63;21.83;;;;;;;;;;5068945;28;20438;-74
2023/01/26 02:33:54;;;;;;;36.53;21.93;;;;;;;;;;5069544;28;20450;-72
2023/01/26 02:36:22;;;;;;;35.80;22.07;;;;;;;;;;5072854;28;20880;-73
2023/01/26 02:38:53;;;;;;;40.23;24.67;;;;;;;;;;5073427;28;20482;-72
2023/01/26 02:44:04;;;;;;;34.90;21.00;;;;;;;;;;5072711;28;20429;-73
2023/01/26 02:46:31;;;;;;;34.57;22.80;;;;;;;;;;5073774;28;20653;-74
2023/01/26 02:51:43;;;;;;;33.83;21.03;;;;;;;;;;5073174;28;20920;-72
2023/01/26 02:55:21;;;;;;;27.07;18.00;;;;;;;;;;5073179;28;20449;-73
2023/01/26 02:56:57;;;;;;;28.30;18.10;;;;;;;;;;5072730;28;20485;-73
2023/01/26 02:59:25;;;;;;;27.90;18.37;;;;;;;;;;5073149;28;20462;-73
2023/01/26 03:01:53;;;;;;;30.40;18.53;;;;;;;;;;5072929;28;20595;-74
2023/01/26 03:04:20;;;;;;;30.00;18.10;;;;;;;;;;5073087;28;20541;-73
2023/01/26 03:06:47;;;;;;;30.60;16.87;;;;;;;;;;5073102;28;20460;-73
2023/01/26 03:09:14;;;;;;;26.07;16.67;;;;;;;;;;5073080;28;20453;-74
2023/01/26 03:11:41;;;;;;;29.50;17.07;;;;;;;;;;5073118;28;20442;-72
2023/01/26 03:14:08;;;;;;;28.57;17.60;;;;;;;;;;5072449;28;20479;-72
2023/01/26 03:16:37;;;;;;;28.10;17.53;;;;;;;;;;5056879;28;20473;-72
2023/01/26 03:27:27;;;;;;;36.40;18.70;;;;;;;;;;5052365;28;20417;-73
2023/01/26 03:29:54;;;;;;;31.50;18.90;;;;;;;;;;5052611;28;20540;-73
2023/01/26 03:32:22;;;;;;;33.17;19.97;;;;;;;;;;5052233;28;20863;-74
2023/01/26 03:34:49;;;;;;;32.97;19.03;;;;;;;;;;5052149;28;20452;-73
2023/01/26 03:37:20;;;;;;;34.37;19.73;;;;;;;;;;5052061;28;20487;-72
2023/01/26 03:56:23;;;;;;;33.70;19.03;;;;;;;;;;5051639;28;20477;-74
2023/01/26 03:58:51;;;;;;;27.50;17.37;;;;;;;;;;5051863;28;20470;-74
2023/01/26 04:01:19;;;;;;;28.37;15.97;;;;;;;;;;5051675;28;20440;-73
2023/01/26 04:09:18;;;;;;;31.00;18.67;;;;;;;;;;5051624;28;20482;-72
2023/01/26 04:11:45;;;;;;;29.60;18.60;;;;;;;;;;5051758;28;20788;-73
2023/01/26 04:22:29;;;;;;;32.93;15.80;;;;;;;;;;5051466;28;20422;-73
2023/01/26 04:24:56;;;;;;;25.57;16.07;;;;;;;;;;5051162;28;20434;-73
2023/01/26 04:27:24;;;;;;;23.40;14.27;;;;;;;;;;5051119;28;20489;-73
2023/01/26 04:29:51;;;;;;;27.27;14.27;;;;;;;;;;5051222;28;20565;-73
2023/01/26 04:32:18;;;;;;;31.10;17.57;;;;;;;;;;5051334;28;20541;-72
2023/01/26 04:34:46;;;;;;;28.23;16.77;;;;;;;;;;5051074;28;20438;-74
2023/01/26 04:37:13;;;;;;;29.40;15.70;;;;;;;;;;5051033;28;20532;-74
2023/01/26 04:39:40;;;;;;;28.33;16.97;;;;;;;;;;5051040;28;20523;-73
2023/01/26 04:42:07;;;;;;;27.90;16.50;;;;;;;;;;5050720;28;20446;-73
2023/01/26 04:44:34;;;;;;;26.73;15.83;;;;;;;;;;5050716;28;20487;-71
2023/01/26 04:47:01;;;;;;;25.50;15.60;;;;;;;;;;5051017;28;20488;-73
2023/01/26 04:49:28;;;;;;;28.30;18.07;;;;;;;;;;5051004;28;20815;-73
2023/01/26 04:51:56;;;;;;;26.80;16.40;;;;;;;;;;5050789;28;20440;-72
2023/01/26 04:54:23;;;;;;;27.70;17.40;;;;;;;;;;5050202;28;20450;-73
2023/01/26 04:56:51;;;;;;;27.77;16.70;;;;;;;;;;5050550;28;20488;-72
2023/01/26 04:59:18;;;;;;;28.63;17.03;;;;;;;;;;5049632;28;20560;-74
2023/01/26 05:01:45;;;;;;;29.00;17.30;;;;;;;;;;5050968;28;20458;-73
2023/01/26 05:04:12;;;;;;;28.70;17.83;;;;;;;;;;5050065;28;20452;-73
2023/01/26 05:06:40;;;;;;;25.07;15.50;;;;;;;;;;5050352;28;20885;-73
2023/01/26 05:09:09;;;;;;;30.57;19.00;;;;;;;;;;5050410;28;20985;-74
2023/01/26 05:11:36;;;;;;;25.80;17.40;;;;;;;;;;5050640;28;20480;-72
2023/01/26 05:14:03;;;;;;;26.20;16.40;;;;;;;;;;5050647;28;20504;-72
2023/01/26 05:16:30;;;;;;;31.70;18.47;;;;;;;;;;5065367;28;20488;-72
2023/01/26 05:18:57;;;;;;;26.87;17.40;;;;;;;;;;5070483;28;20438;-73
2023/01/26 05:21:26;;;;;;;25.27;17.57;;;;;;;;;;5071006;28;20449;-72
2023/01/26 05:23:53;;;;;;;28.00;17.27;;;;;;;;;;5071604;28;20909;-72
2023/01/26 05:26:21;;;;;;;24.97;16.30;;;;;;;;;;5070997;28;20448;-74
2023/01/26 05:28:48;;;;;;;27.63;16.77;;;;;;;;;;5070350;28;20548;-73
2023/01/26 05:31:15;;;;;;;27.40;17.63;;;;;;;;;;5073402;28;20732;-73
2023/01/26 05:33:42;;;;;;;26.27;16.50;;;;;;;;;;5075453;28;20842;-73
2023/01/26 05:36:10;;;;;;;29.60;18.00;;;;;;;;;;5074459;28;20802;-73
2023/01/26 05:38:37;;;;;;;28.40;16.97;;;;;;;;;;5075464;28;20452;-73
2023/01/26 05:41:04;;;;;;;24.60;16.20;;;;;;;;;;5073864;28;20461;-72
2023/01/26 05:43:32;;;;;;;23.70;15.80;;;;;;;;;;5072177;28;20859;-73
2023/01/26 05:45:59;;;;;;;30.10;17.10;;;;;;;;;;5070076;28;20486;-74
2023/01/26 05:48:26;;;;;;;28.40;17.10;;;;;;;;;;5069870;28;20440;-75
2023/01/26 05:50:55;;;;;;;25.67;15.80;;;;;;;;;;5073001;28;20464;-72
2023/01/26 05:53:22;;;;;;;24.40;16.30;;;;;;;;;;5073346;28;20444;-73
2023/01/26 05:55:49;;;;;;;27.50;17.70;;;;;;;;;;5073573;28;20457;-74
2023/01/26 05:58:16;;;;;;;27.70;18.10;;;;;;;;;;5072131;28;20453;-73
2023/01/26 06:00:45;;;;;;;24.80;15.30;;;;;;;;;;5069885;28;20472;-73
2023/01/26 06:03:12;;;;;;;24.17;15.50;;;;;;;;;;5069514;28;20664;-72
2023/01/26 06:05:39;;;;;;;21.13;14.33;;;;;;;;;;5070003;28;20453;-74
2023/01/26 06:08:06;;;;;;;24.93;15.93;;;;;;;;;;5069635;28;20456;-75
2023/01/26 06:10:33;;;;;;;27.43;16.00;;;;;;;;;;5069708;28;20540;-75
2023/01/26 06:13:00;;;;;;;30.67;17.47;;;;;;;;;;5069927;28;20974;-74
2023/01/26 06:15:27;;;;;;;28.30;16.70;;;;;;;;;;5063834;28;20996;-73
2023/01/26 06:17:56;;;;;;;30.47;16.00;;;;;;;;;;5049497;28;20536;-73
2023/01/26 06:20:23;;;;;;;27.70;17.77;;;;;;;;;;5049909;28;20552;-74
2023/01/26 06:22:50;;;;;;;25.07;16.43;;;;;;;;;;5050012;28;20453;-74
2023/01/26 06:25:17;;;;;;;25.77;16.67;;;;;;;;;;5049949;28;20433;-74
2023/01/26 06:27:44;;;;;;;25.97;16.60;;;;;;;;;;5049220;28;21017;-72
2023/01/26 06:30:11;;;;;;;26.03;17.60;;;;;;;;;;5050299;28;20462;-72
2023/01/26 06:32:38;;;;;;;25.43;15.80;;;;;;;;;;5050376;28;20445;-74
2023/01/26 06:35:07;;;;;;;23.37;16.53;;;;;;;;;;5060253;28;20460;-73
2023/01/26 06:37:35;;;;;;;24.47;16.90;;;;;;;;;;5064082;28;20483;-73
2023/01/26 06:40:02;;;;;;;33.90;16.47;;;;;;;;;;5074743;28;20489;-74
2023/01/26 06:42:29;;;;;;;24.83;16.30;;;;;;;;;;5073892;28;20456;-73
2023/01/26 06:44:57;;;;;;;26.67;16.50;;;;;;;;;;5071439;28;20448;-72
2023/01/26 06:47:25;;;;;;;25.33;15.73;;;;;;;;;;5069437;28;20443;-73
2023/01/26 06:49:52;;;;;;;27.60;16.90;;;;;;;;;;5069374;28;20539;-73
2023/01/26 06:52:31;;;;;;;28.43;17.47;;;;;;;;;;5069560;28;20506;-73
2023/01/26 06:54:59;;;;;;;25.70;16.27;;;;;;;;;;5069811;28;20445;-74
2023/01/26 06:57:26;;;;;;;28.30;18.50;;;;;;;;;;5069071;28;20866;-74
2023/01/26 06:59:53;;;;;;;26.60;17.40;;;;;;;;;;5069494;28;20475;-74
2023/01/26 07:02:21;;;;;;;25.73;16.10;;;;;;;;;;5069314;28;20455;-74
2023/01/26 07:04:48;;;;;;;24.50;16.50;;;;;;;;;;5069004;28;20455;-75
2023/01/26 07:07:15;;;;;;;26.00;16.53;;;;;;;;;;5069091;28;20924;-74
2023/01/26 07:09:44;;;;;;;26.33;15.30;;;;;;;;;;5068876;28;20476;-75
2023/01/26 07:12:11;;;;;;;22.97;13.97;;;;;;;;;;5069678;28;20518;-75
2023/01/26 07:14:38;;;;;;;21.93;14.70;;;;;;;;;;5069119;28;20452;-73
2023/01/26 07:17:05;;;;;;;26.73;16.60;;;;;;;;;;5068949;28;20480;-72
2023/01/26 07:19:32;;;;;;;23.97;16.70;;;;;;;;;;5069015;28;20469;-74
2023/01/26 07:21:59;;;;;;;30.50;15.90;;;;;;;;;;5069844;28;20451;-74
2023/01/26 07:24:27;;;;;;;26.70;16.83;;;;;;;;;;5072273;28;20469;-72
2023/01/26 07:26:55;;;;;;;23.47;15.90;;;;;;;;;;5072726;28;20848;-74
2023/01/26 07:29:22;;;;;;;25.10;16.30;;;;;;;;;;5072825;28;20498;-74
2023/01/26 07:31:49;;;;;;;23.47;15.60;;;;;;;;;;5072957;28;20440;-73
2023/01/26 07:34:16;;;;;;;24.50;15.30;;;;;;;;;;5072490;28;20449;-75
2023/01/26 07:36:44;;;;;;;26.57;16.47;;;;;;;;;;5073547;28;20479;-74
2023/01/26 07:39:11;;;;;;;26.87;18.37;;;;;;;;;;5073182;28;20467;-74
2023/01/26 07:41:38;;;;;;;23.67;15.53;;;;;;;;;;5073012;28;20976;-73
2023/01/26 07:44:09;;;;;;;26.37;16.97;;;;;;;;;;5073415;28;20460;-73
2023/01/26 07:46:36;;;;;;;26.93;17.40;;;;;;;;;;5073209;28;20421;-72
2023/01/26 07:49:03;;;;;;;26.90;16.30;;;;;;;;;;5072853;28;20469;-74
2023/01/26 07:51:30;;;;;;;24.80;17.37;;;;;;;;;;5072313;28;20436;-72
2023/01/26 07:53:57;;;;;;;28.07;17.10;;;;;;;;;;5072678;28;20821;-73
2023/01/26 07:56:24;;;;;;;28.70;18.40;;;;;;;;;;5072660;28;20452;-73
2023/01/26 07:58:52;;;;;;;25.93;16.47;;;;;;;;;;5072772;28;20453;-73
2023/01/26 08:01:20;;;;;;;23.17;15.87;;;;;;;;;;5072414;28;20456;-73
2023/01/26 08:03:50;;;;;;;26.30;15.53;;;;;;;;;;5072301;28;20445;-74
2023/01/26 08:06:17;;;;;;;24.90;15.87;;;;;;;;;;5072631;28;20442;-73
2023/01/26 08:08:45;;;;;;;25.70;15.70;;;;;;;;;;5073368;28;20456;-73
2023/01/26 08:11:12;;;;;;;26.23;16.17;;;;;;;;;;5073538;28;20436;-74
2023/01/26 08:13:39;;;;;;;25.03;16.53;;;;;;;;;;5073827;28;20456;-74
2023/01/26 08:16:09;;;;;;;22.10;15.70;;;;;;;;;;5063296;28;20445;-74
2023/01/26 08:18:38;;;;;;;20.90;14.53;;;;;;;;;;5053769;28;21028;-74
2023/01/26 08:21:05;;;;;;;33.10;24.00;;;;;;;;;;5055861;28;20473;-72
2023/01/26 08:23:32;;;;;;;27.77;16.50;;;;;;;;;;5056802;28;20449;-72
2023/01/26 08:26:01;;;;;;;24.37;14.63;;;;;;;;;;5054026;28;20452;-73
2023/01/26 08:28:28;;;;;;;20.67;14.70;;;;;;;;;;5052317;28;20449;-74
2023/01/26 08:30:55;;;;;;;24.07;14.17;;;;;;;;;;5051982;28;20497;-73
2023/01/26 08:33:22;;;;;;;22.43;15.77;;;;;;;;;;5051854;28;20486;-73
2023/01/26 08:35:51;;;;;;;22.67;14.57;;;;;;;;;;5052274;28;20452;-74
2023/01/26 08:38:18;;;;;;;23.00;15.47;;;;;;;;;;5052457;28;20481;-74
2023/01/26 08:40:45;;;;;;;16.83;13.03;;;;;;;;;;5052153;28;20872;-73
2023/01/26 08:43:12;;;;;;;18.17;12.17;;;;;;;;;;5051957;28;20454;-74
2023/01/26 08:45:39;;;;;;;17.93;12.60;;;;;;;;;;5051653;28;20446;-73
2023/01/26 08:48:06;;;;;;;15.50;12.03;;;;;;;;;;5051639;28;20479;-73
2023/01/26 08:50:33;;;;;;;17.43;12.17;;;;;;;;;;5052240;28;20529;-73
2023/01/26 08:53:02;;;;;;;19.10;13.67;;;;;;;;;;5052267;28;20446;-75
2023/01/26 08:55:31;;;;;;;18.73;12.50;;;;;;;;;;5052313;28;20445;-73
2023/01/26 08:57:59;;;;;;;17.97;12.63;;;;;;;;;;5052186;28;20476;-75
2023/01/26 09:00:27;;;;;;;19.47;13.37;;;;;;;;;;5052337;28;20469;-74
2023/01/26 09:02:58;;;;;;;19.67;13.47;;;;;;;;;;5051155;28;20451;-73
2023/01/26 09:05:25;;;;;;;22.70;14.70;;;;;;;;;;5051162;28;20494;-72
2023/01/26 09:07:52;;;;;;;22.83;15.37;;;;;;;;;;5050819;28;20766;-74
2023/01/26 09:10:21;;;;;;;26.23;15.87;;;;;;;;;;5050884;28;20540;-74
2023/01/26 09:12:48;;;;;;;20.93;13.80;;;;;;;;;;5050383;28;20449;-73
2023/01/26 09:15:15;;;;;;;20.53;13.93;;;;;;;;;;5051092;28;20447;-75
2023/01/26 09:17:42;;;;;;;20.97;13.60;;;;;;;;;;5050876;28;20482;-73
2023/01/26 09:20:10;;;;;;;20.70;14.30;;;;;;;;;;5050574;28;20466;-73
2023/01/26 09:22:37;;;;;;;22.30;14.83;;;;;;;;;;5050277;28;20452;-73
2023/01/26 09:25:04;;;;;;;22.53;15.90;;;;;;;;;;5050868;28;20507;-73
2023/01/26 09:27:32;;;;;;;22.90;15.03;;;;;;;;;;5050671;28;20446;-74
2023/01/26 09:29:59;;;;;;;23.17;14.83;;;;;;;;;;5050673;28;20465;-73
2023/01/26 09:32:26;;;;;;;22.10;14.93;;;;;;;;;;5050333;28;20796;-75
2023/01/26 09:34:53;;;;;;;23.63;15.70;;;;;;;;;;5050480;28;20445;-73
2023/01/26 09:37:20;;;;;;;18.93;13.63;;;;;;;;;;5050423;28;20477;-74
2023/01/26 09:39:47;;;;;;;17.60;12.97;;;;;;;;;;5050389;28;20532;-72
2023/01/26 09:42:23;;;;;;;19.63;13.10;;;;;;;;;;5050495;28;20445;-73
2023/01/26 09:44:55;;;;;;;21.23;13.60;;;;;;;;;;5049993;28;20506;-73
2023/01/26 09:47:26;;;;;;;23.30;15.17;;;;;;;;;;5050509;28;20608;-73
2023/01/26 09:49:57;;;;;;;25.10;15.37;;;;;;;;;;5050513;28;20560;-73
2023/01/26 09:52:27;;;;;;;21.47;13.07;;;;;;;;;;5050139;28;20449;-73
2023/01/26 09:54:55;;;;;;;17.27;12.67;;;;;;;;;;5050853;28;20476;-73
2023/01/26 09:57:25;;;;;;;20.83;13.23;;;;;;;;;;5050673;28;21008;-73
2023/01/26 09:59:57;;;;;;;19.20;13.03;;;;;;;;;;5051949;28;20469;-72
2023/01/26 10:02:33;;;;;;;18.67;13.13;;;;;;;;;;5053013;28;20929;-73
2023/01/26 10:05:03;;;;;;;18.67;13.20;;;;;;;;;;5052330;28;20448;-73
2023/01/26 10:07:30;;;;;;;21.07;13.57;;;;;;;;;;5054243;28;20450;-73
2023/01/26 10:09:57;;;;;;;16.43;12.47;;;;;;;;;;5057767;28;20466;-73
2023/01/26 10:12:25;;;;;;;18.30;12.27;;;;;;;;;;5056587;28;20468;-72
2023/01/26 10:14:55;;;;;;;15.43;10.93;;;;;;;;;;5062968;28;20471;-74
2023/01/26 10:17:26;;;;;;;15.13;10.50;;;;;;;;;;5051377;28;20477;-75
2023/01/26 10:19:55;;;;;;;16.47;11.73;;;;;;;;;;5068228;28;20464;-75
2023/01/26 10:22:25;;;;;;;15.90;10.43;;;;;;;;;;5071450;28;20449;-75
2023/01/26 10:24:53;;;;;;;13.60;10.40;;;;;;;;;;5070009;28;20522;-76
2023/01/26 10:27:20;;;;;;;15.47;11.43;;;;;;;;;;5061942;28;20462;-75
2023/01/26 10:29:47;;;;;;;15.77;10.80;;;;;;;;;;5069661;28;20456;-75
2023/01/26 10:32:16;;;;;;;15.20;9.67;;;;;;;;;;5069482;28;20437;-74
2023/01/26 10:34:44;;;;;;;16.03;10.40;;;;;;;;;;5067346;28;20452;-76
2023/01/26 10:37:19;;;;;;;14.30;9.67;;;;;;;;;;5068619;28;20522;-75
2023/01/26 10:39:57;;;;;;;12.40;9.20;;;;;;;;;;5069509;28;20484;-76
2023/01/26 10:42:26;;;;;;;12.77;9.10;;;;;;;;;;5068239;28;20438;-75
2023/01/26 10:44:53;;;;;;;13.90;10.80;;;;;;;;;;5068917;28;20444;-76
2023/01/26 10:47:22;;;;;;;14.13;9.50;;;;;;;;;;5070139;28;20475;-74
2023/01/26 10:49:49;;;;;;;13.00;9.30;;;;;;;;;;5069883;28;20522;-75
2023/01/26 10:52:17;;;;;;;13.10;9.40;;;;;;;;;;5069228;28;20442;-75
2023/01/26 10:54:44;;;;;;;12.00;9.37;;;;;;;;;;5068282;28;20445;-74
2023/01/26 10:57:16;;;;;;;14.53;9.77;;;;;;;;;;5070014;28;20437;-76
2023/01/26 10:59:48;;;;;;;13.10;9.87;;;;;;;;;;5073269;28;20456;-75
2023/01/26 11:02:22;;;;;;;12.40;9.70;;;;;;;;;;5073239;28;20436;-75
2023/01/26 11:05:03;;;;;;;12.60;9.30;;;;;;;;;;5073175;28;20915;-75
2023/01/26 11:07:32;;;;;;;14.17;10.13;;;;;;;;;;5073841;28;20456;-75
2023/01/26 11:10:16;;;;;;;14.13;10.00;;;;;;;;;;5073437;28;20465;-75
2023/01/26 11:12:43;;;;;;;14.60;10.37;;;;;;;;;;5071747;28;20425;-75
2023/01/26 11:15:16;;;;;;;14.63;11.10;;;;;;;;;;5072929;28;21024;-75
2023/01/26 11:17:48;;;;;;;16.03;11.60;;;;;;;;;;5071495;28;20840;-76
2023/01/26 11:20:28;;;;;;;17.30;12.00;;;;;;;;;;5070635;28;20465;-76
2023/01/26 11:22:59;;;;;;;12.67;10.33;;;;;;;;;;5070328;28;20455;-75
2023/01/26 11:25:28;;;;;;;19.03;11.67;;;;;;;;;;5070349;28;20523;-74
2023/01/26 11:28:05;;;;;;;16.60;11.40;;;;;;;;;;5069659;28;20448;-74
2023/01/26 11:30:37;;;;;;;16.80;10.57;;;;;;;;;;5049675;28;20461;-75
2023/01/26 11:33:10;;;;;;;15.77;11.23;;;;;;;;;;5049841;28;20422;-75
2023/01/26 11:35:43;;;;;;;16.73;10.43;;;;;;;;;;5050451;28;20726;-74
2023/01/26 11:38:22;;;;;;;18.70;11.53;;;;;;;;;;5049989;28;20477;-75
2023/01/26 11:40:52;;;;;;;15.87;10.40;;;;;;;;;;5050023;28;20588;-75
2023/01/26 11:43:37;;;;;;;15.57;10.57;;;;;;;;;;5050247;28;20493;-75
2023/01/26 11:46:24;;;;;;;14.50;9.83;;;;;;;;;;5049937;28;20529;-75
2023/01/26 11:48:57;;;;;;;13.60;9.53;;;;;;;;;;5032415;28;20456;-74
2023/01/26 11:51:31;;;;;;;14.17;10.40;;;;;;;;;;5050171;28;20457;-75
2023/01/26 11:54:03;;;;;;;15.80;10.37;;;;;;;;;;5049818;28;20936;-76
2023/01/26 11:56:36;;;;;;;14.77;10.97;;;;;;;;;;5049881;28;20442;-75
2023/01/26 11:59:06;;;;;;;17.37;11.17;;;;;;;;;;5049931;28;20542;-75
2023/01/26 12:01:36;;;;;;;16.90;10.77;;;;;;;;;;5049786;28;20445;-78
2023/01/26 12:04:05;;;;;;;15.03;10.27;;;;;;;;;;5050552;28;20453;-76
2023/01/26 12:06:37;;;;;;;19.30;13.00;;;;;;;;;;5049446;28;20446;-75
2023/01/26 12:09:09;;;;;;;15.53;10.90;;;;;;;;;;5052582;28;20504;-74
2023/01/26 12:11:39;;;;;;;15.43;9.93;;;;;;;;;;5053617;28;20469;-75
2023/01/26 12:14:11;;;;;;;13.73;10.17;;;;;;;;;;5052617;28;20450;-74
2023/01/26 12:16:41;;;;;;;12.83;9.27;;;;;;;;;;5068590;28;20437;-75
2023/01/26 12:19:21;;;;;;;15.17;10.13;;;;;;;;;;5072638;28;20481;-74
2023/01/26 12:21:50;;;;;;;12.60;9.43;;;;;;;;;;5070396;28;20432;-74
2023/01/26 12:24:21;;;;;;;16.60;9.90;;;;;;;;;;5068895;28;20460;-74
2023/01/26 12:26:50;;;;;;;14.97;9.80;;;;;;;;;;5067723;28;20441;-74
2023/01/26 12:29:22;;;;;;;13.87;9.73;;;;;;;;;;5069674;28;20556;-75
2023/01/26 12:31:51;;;;;;;16.43;10.70;;;;;;;;;;5069708;28;20494;-74
2023/01/26 12:34:23;;;;;;;15.83;10.00;;;;;;;;;;5069054;28;20437;-74
2023/01/26 12:36:54;;;;;;;12.97;10.47;;;;;;;;;;5068009;28;20857;-75
2023/01/26 12:39:25;;;;;;;15.50;11.33;;;;;;;;;;5069206;28;20512;-75
2023/01/26 12:42:10;;;;;;;20.20;12.03;;;;;;;;;;5069311;28;20571;-74
2023/01/26 12:44:39;;;;;;;16.20;10.97;;;;;;;;;;5068501;28;20459;-75
2023/01/26 12:47:09;;;;;;;17.07;12.50;;;;;;;;;;5068973;28;20447;-75
2023/01/26 12:49:41;;;;;;;19.67;12.93;;;;;;;;;;5048488;28;20469;-75
2023/01/26 12:52:11;;;;;;;21.07;13.30;;;;;;;;;;5048938;28;20487;-76
2023/01/26 12:54:41;;;;;;;20.07;13.10;;;;;;;;;;5049113;28;20421;-75
2023/01/26 12:57:13;;;;;;;20.73;14.03;;;;;;;;;;5048821;28;20781;-74
2023/01/26 12:59:41;;;;;;;23.70;14.27;;;;;;;;;;5048582;28;20489;-74
2023/01/26 13:02:16;;;;;;;19.80;14.27;;;;;;;;;;5048571;28;20453;-75
2023/01/26 13:04:45;;;;;;;21.00;13.33;;;;;;;;;;5048769;28;20441;-76
2023/01/26 13:07:28;;;;;;;22.03;13.77;;;;;;;;;;5048601;28;20453;-75
2023/01/26 13:10:13;;;;;;;22.23;14.40;;;;;;;;;;5048626;28;20991;-74
2023/01/26 13:12:47;;;;;;;23.77;15.23;;;;;;;;;;5048824;28;20964;-74
2023/01/26 13:15:15;;;;;;;22.73;15.57;;;;;;;;;;5053729;28;20433;-75
2023/01/26 13:17:49;;;;;;;25.33;15.60;;;;;;;;;;5070433;28;20450;-74
2023/01/26 13:23:40;;;;;;;22.10;14.20;;;;;;;;;;5084563;28;20579;-75
2023/01/26 13:26:14;;;;;;;22.20;16.17;;;;;;;;;;5064651;28;20502;-75
2023/01/26 13:28:42;;;;;;;23.53;16.20;;;;;;;;;;5064668;28;20440;-75
2023/01/26 13:31:09;;;;;;;20.13;14.47;;;;;;;;;;5064872;28;20950;-74
2023/01/26 13:33:36;;;;;;;22.03;16.07;;;;;;;;;;5064590;28;20436;-74
2023/01/26 13:36:04;;;;;;;22.73;15.27;;;;;;;;;;5064814;28;20432;-75
2023/01/26 13:38:34;;;;;;;22.60;15.40;;;;;;;;;;5064718;28;20441;-75
2023/01/26 13:41:03;;;;;;;34.40;17.10;;;;;;;;;;5064463;28;20519;-76
2023/01/26 13:43:33;;;;;;;23.00;16.03;;;;;;;;;;5064138;28;21424;-74
2023/01/26 13:46:07;;;;;;;25.13;16.27;;;;;;;;;;5064668;28;20452;-74
2023/01/26 13:48:38;;;;;;;25.83;16.80;;;;;;;;;;5064319;28;20901;-74
2023/01/26 13:51:05;;;;;;;27.23;17.37;;;;;;;;;;5064435;28;20471;-74
2023/01/26 13:53:36;;;;;;;25.80;16.10;;;;;;;;;;5064298;28;20473;-74
2023/01/26 13:56:05;;;;;;;27.30;16.40;;;;;;;;;;5064472;28;20445;-74
2023/01/26 13:58:33;;;;;;;21.03;14.77;;;;;;;;;;5065020;28;20444;-76
2023/01/26 14:01:00;;;;;;;24.67;16.63;;;;;;;;;;5064858;28;20461;-74
2023/01/26 14:03:29;;;;;;;25.33;16.10;;;;;;;;;;5064648;28;20464;-75
2023/01/26 14:05:57;;;;;;;23.27;15.50;;;;;;;;;;5064331;28;20561;-75
2023/01/26 14:08:24;;;;;;;25.67;17.60;;;;;;;;;;5064529;28;20440;-75
2023/01/26 14:10:52;;;;;;;22.63;15.03;;;;;;;;;;5064129;28;20473;-74
2023/01/26 14:13:23;;;;;;;26.30;15.47;;;;;;;;;;5064444;28;20524;-75
2023/01/26 14:15:56;;;;;;;24.83;16.00;;;;;;;;;;5073551;28;20459;-75
2023/01/26 14:18:23;;;;;;;26.10;17.30;;;;;;;;;;5084459;28;20449;-74
2023/01/26 14:20:50;;;;;;;22.17;16.17;;;;;;;;;;5084477;28;20468;-75
2023/01/26 14:23:18;;;;;;;27.30;16.53;;;;;;;;;;5084680;28;20836;-75
2023/01/26 14:25:46;;;;;;;26.00;17.90;;;;;;;;;;5085157;28;20474;-75
2023/01/26 14:28:15;;;;;;;24.07;16.03;;;;;;;;;;5084780;28;20449;-74
2023/01/26 14:30:44;;;;;;;23.47;18.07;;;;;;;;;;5084896;28;20545;-75
2023/01/26 14:33:13;;;;;;;27.37;17.80;;;;;;;;;;5079241;28;20810;-74
2023/01/26 14:35:40;;;;;;;19.73;14.07;;;;;;;;;;5071244;28;20442;-74
2023/01/26 14:38:14;;;;;;;23.10;16.07;;;;;;;;;;5070819;28;20489;-73
2023/01/26 14:40:44;;;;;;;24.50;16.20;;;;;;;;;;5070694;28;20460;-75
2023/01/26 14:43:12;;;;;;;22.90;14.80;;;;;;;;;;5070301;28;20479;-74
2023/01/26 14:45:40;;;;;;;21.50;15.40;;;;;;;;;;5070162;28;20449;-75
2023/01/26 14:48:10;;;;;;;24.43;15.23;;;;;;;;;;5070373;28;20457;-74
2023/01/26 14:50:37;;;;;;;24.53;14.90;;;;;;;;;;5070413;28;20496;-74
2023/01/26 14:53:05;;;;;;;25.90;16.03;;;;;;;;;;5070162;28;20452;-74
2023/01/26 14:55:35;;;;;;;22.37;14.93;;;;;;;;;;5070201;28;20450;-74
2023/01/26 14:58:03;;;;;;;19.80;14.33;;;;;;;;;;5070570;28;20455;-74
2023/01/26 15:00:31;;;;;;;25.27;15.47;;;;;;;;;;5070340;28;20476;-74
2023/01/26 15:03:00;;;;;;;20.03;14.10;;;;;;;;;;5069736;28;20478;-75
2023/01/26 15:05:33;;;;;;;20.90;14.23;;;;;;;;;;5069832;28;20452;-74
2023/01/26 15:08:02;;;;;;;19.60;13.13;;;;;;;;;;5069576;28;20802;-74
2023/01/26 15:10:33;;;;;;;18.73;14.30;;;;;;;;;;5070025;28;20525;-74
2023/01/26 15:13:00;;;;;;;19.20;13.37;;;;;;;;;;5069537;28;20433;-74
2023/01/26 15:15:29;;;;;;;21.97;13.67;;;;;;;;;;5069445;28;20860;-74